sensor_id;sensor_type;location;lat;lon;timestamp;P1;durP1;ratioP1;P2;durP2;ratioP2
10725;SDS011;5414;59.782;16.378;2022-07-06T00:01:27;3.27;;;1.20;;
10725;SDS011;5414;59.782;16.378;2022-07-06T00:03:53;4.10;;;1.63;;
10725;SDS011;5414;59.782;16.378;2022-07-06T00:06:19;3.30;;;1.40;;
10725;SDS011;5414;59.782;16.378;2022-07-06T00:08:45;4.53;;;1.33;;
10725;SDS011;5414;59.782;16.378;2022-07-06T00:11:11;2.37;;;1.30;;
10725;SDS011;5414;59.782;16.378;2022-07-06T00:13:37;2.97;;;1.23;;
10725;SDS011;5414;59.782;16.378;2022-07-06T00:16:03;5.17;;;1.73;;
10725;SDS011;5414;59.782;16.378;2022-07-06T00:18:29;2.97;;;1.50;;
10725;SDS011;5414;59.782;16.378;2022-07-06T00:20:55;4.00;;;1.40;;
10725;SDS011;5414;59.782;16.378;2022-07-06T00:23:21;3.07;;;1.50;;
10725;SDS011;5414;59.782;16.378;2022-07-06T00:25:47;3.70;;;1.60;;
10725;SDS011;5414;59.782;16.378;2022-07-06T00:28:14;7.00;;;1.70;;
10725;SDS011;5414;59.782;16.378;2022-07-06T00:30:40;3.03;;;1.40;;
10725;SDS011;5414;59.782;16.378;2022-07-06T00:33:06;5.50;;;2.00;;
10725;SDS011;5414;59.782;16.378;2022-07-06T00:35:32;5.33;;;1.60;;
10725;SDS011;5414;59.782;16.378;2022-07-06T00:37:58;2.93;;;1.80;;
10725;SDS011;5414;59.782;16.378;2022-07-06T00:40:24;2.67;;;1.50;;
10725;SDS011;5414;59.782;16.378;2022-07-06T00:42:50;3.33;;;1.60;;
10725;SDS011;5414;59.782;16.378;2022-07-06T00:45:17;2.60;;;1.60;;
10725;SDS011;5414;59.782;16.378;2022-07-06T00:47:43;2.47;;;1.40;;
10725;SDS011;5414;59.782;16.378;2022-07-06T00:50:16;3.70;;;1.50;;
10725;SDS011;5414;59.782;16.378;2022-07-06T00:52:46;4.27;;;1.80;;
10725;SDS011;5414;59.782;16.378;2022-07-06T00:55:13;5.73;;;1.70;;
10725;SDS011;5414;59.782;16.378;2022-07-06T00:57:39;2.37;;;1.50;;
10725;SDS011;5414;59.782;16.378;2022-07-06T01:00:07;3.40;;;1.67;;
10725;SDS011;5414;59.782;16.378;2022-07-06T01:02:33;5.00;;;1.90;;
10725;SDS011;5414;59.782;16.378;2022-07-06T01:04:59;2.97;;;1.60;;
10725;SDS011;5414;59.782;16.378;2022-07-06T01:07:26;3.00;;;1.60;;
10725;SDS011;5414;59.782;16.378;2022-07-06T01:09:52;3.93;;;2.03;;
10725;SDS011;5414;59.782;16.378;2022-07-06T01:12:19;6.00;;;2.13;;
10725;SDS011;5414;59.782;16.378;2022-07-06T01:14:45;3.47;;;1.80;;
10725;SDS011;5414;59.782;16.378;2022-07-06T01:17:11;4.73;;;1.60;;
10725;SDS011;5414;59.782;16.378;2022-07-06T01:19:39;3.67;;;1.50;;
10725;SDS011;5414;59.782;16.378;2022-07-06T01:22:05;3.30;;;1.60;;
10725;SDS011;5414;59.782;16.378;2022-07-06T01:24:31;4.80;;;2.00;;
10725;SDS011;5414;59.782;16.378;2022-07-06T01:26:57;3.37;;;1.90;;
10725;SDS011;5414;59.782;16.378;2022-07-06T01:29:23;4.37;;;1.60;;
10725;SDS011;5414;59.782;16.378;2022-07-06T01:31:50;5.63;;;1.53;;
10725;SDS011;5414;59.782;16.378;2022-07-06T01:34:17;4.13;;;1.70;;
10725;SDS011;5414;59.782;16.378;2022-07-06T01:36:43;3.80;;;2.00;;
10725;SDS011;5414;59.782;16.378;2022-07-06T01:39:09;3.67;;;1.80;;
10725;SDS011;5414;59.782;16.378;2022-07-06T01:41:35;3.73;;;1.60;;
10725;SDS011;5414;59.782;16.378;2022-07-06T01:44:02;5.10;;;1.80;;
10725;SDS011;5414;59.782;16.378;2022-07-06T01:46:28;3.67;;;1.60;;
10725;SDS011;5414;59.782;16.378;2022-07-06T01:48:54;5.60;;;1.80;;
10725;SDS011;5414;59.782;16.378;2022-07-06T01:51:20;3.70;;;1.83;;
10725;SDS011;5414;59.782;16.378;2022-07-06T01:53:46;6.53;;;1.70;;
10725;SDS011;5414;59.782;16.378;2022-07-06T01:56:12;3.77;;;1.73;;
10725;SDS011;5414;59.782;16.378;2022-07-06T01:58:38;4.73;;;1.50;;
10725;SDS011;5414;59.782;16.378;2022-07-06T02:01:23;4.53;;;2.30;;
10725;SDS011;5414;59.782;16.378;2022-07-06T02:03:49;2.77;;;1.70;;
10725;SDS011;5414;59.782;16.378;2022-07-06T02:06:15;3.93;;;1.80;;
10725;SDS011;5414;59.782;16.378;2022-07-06T02:08:41;2.87;;;1.67;;
10725;SDS011;5414;59.782;16.378;2022-07-06T02:11:08;4.87;;;2.07;;
10725;SDS011;5414;59.782;16.378;2022-07-06T02:13:35;4.17;;;1.90;;
10725;SDS011;5414;59.782;16.378;2022-07-06T02:16:01;2.63;;;1.50;;
10725;SDS011;5414;59.782;16.378;2022-07-06T02:18:27;2.77;;;1.83;;
10725;SDS011;5414;59.782;16.378;2022-07-06T02:20:53;4.33;;;2.13;;
10725;SDS011;5414;59.782;16.378;2022-07-06T02:23:19;2.87;;;1.70;;
10725;SDS011;5414;59.782;16.378;2022-07-06T02:25:46;5.47;;;1.90;;
10725;SDS011;5414;59.782;16.378;2022-07-06T02:28:12;5.53;;;2.00;;
10725;SDS011;5414;59.782;16.378;2022-07-06T02:30:38;5.40;;;2.07;;
10725;SDS011;5414;59.782;16.378;2022-07-06T02:33:04;4.33;;;2.07;;
10725;SDS011;5414;59.782;16.378;2022-07-06T02:35:30;6.50;;;2.40;;
10725;SDS011;5414;59.782;16.378;2022-07-06T02:37:56;3.53;;;1.63;;
10725;SDS011;5414;59.782;16.378;2022-07-06T02:40:22;4.67;;;2.20;;
10725;SDS011;5414;59.782;16.378;2022-07-06T02:42:48;4.27;;;2.10;;
10725;SDS011;5414;59.782;16.378;2022-07-06T02:45:14;5.67;;;2.50;;
10725;SDS011;5414;59.782;16.378;2022-07-06T02:47:40;3.63;;;2.30;;
10725;SDS011;5414;59.782;16.378;2022-07-06T02:50:06;6.23;;;2.47;;
10725;SDS011;5414;59.782;16.378;2022-07-06T02:52:32;6.07;;;2.07;;
10725;SDS011;5414;59.782;16.378;2022-07-06T02:54:58;5.73;;;2.50;;
10725;SDS011;5414;59.782;16.378;2022-07-06T02:57:24;5.83;;;2.43;;
10725;SDS011;5414;59.782;16.378;2022-07-06T02:59:50;4.27;;;2.20;;
10725;SDS011;5414;59.782;16.378;2022-07-06T03:02:16;6.00;;;2.00;;
10725;SDS011;5414;59.782;16.378;2022-07-06T03:04:43;4.17;;;2.30;;
10725;SDS011;5414;59.782;16.378;2022-07-06T03:07:09;6.63;;;2.53;;
10725;SDS011;5414;59.782;16.378;2022-07-06T03:09:35;4.03;;;2.30;;
10725;SDS011;5414;59.782;16.378;2022-07-06T03:12:01;6.27;;;2.40;;
10725;SDS011;5414;59.782;16.378;2022-07-06T03:14:27;4.03;;;2.10;;
10725;SDS011;5414;59.782;16.378;2022-07-06T03:16:53;5.13;;;2.30;;
10725;SDS011;5414;59.782;16.378;2022-07-06T03:19:19;3.33;;;2.23;;
10725;SDS011;5414;59.782;16.378;2022-07-06T03:21:46;6.00;;;2.53;;
10725;SDS011;5414;59.782;16.378;2022-07-06T03:24:12;3.50;;;2.20;;
10725;SDS011;5414;59.782;16.378;2022-07-06T03:26:38;5.50;;;2.20;;
10725;SDS011;5414;59.782;16.378;2022-07-06T03:29:04;5.90;;;2.53;;
10725;SDS011;5414;59.782;16.378;2022-07-06T03:31:30;4.87;;;2.37;;
10725;SDS011;5414;59.782;16.378;2022-07-06T03:33:56;6.37;;;2.87;;
10725;SDS011;5414;59.782;16.378;2022-07-06T03:36:22;5.07;;;2.40;;
10725;SDS011;5414;59.782;16.378;2022-07-06T03:38:48;4.83;;;2.20;;
10725;SDS011;5414;59.782;16.378;2022-07-06T03:41:14;6.10;;;2.73;;
10725;SDS011;5414;59.782;16.378;2022-07-06T03:43:40;5.30;;;2.17;;
10725;SDS011;5414;59.782;16.378;2022-07-06T03:46:06;5.13;;;2.20;;
10725;SDS011;5414;59.782;16.378;2022-07-06T03:48:32;4.73;;;2.50;;
10725;SDS011;5414;59.782;16.378;2022-07-06T03:50:58;7.63;;;2.50;;
10725;SDS011;5414;59.782;16.378;2022-07-06T03:53:24;3.50;;;2.43;;
10725;SDS011;5414;59.782;16.378;2022-07-06T03:55:51;7.80;;;2.47;;
10725;SDS011;5414;59.782;16.378;2022-07-06T03:58:36;6.93;;;2.30;;
10725;SDS011;5414;59.782;16.378;2022-07-06T04:01:02;5.63;;;2.60;;
10725;SDS011;5414;59.782;16.378;2022-07-06T04:03:28;4.20;;;2.20;;
10725;SDS011;5414;59.782;16.378;2022-07-06T04:05:54;5.67;;;2.53;;
10725;SDS011;5414;59.782;16.378;2022-07-06T04:08:20;5.60;;;2.80;;
10725;SDS011;5414;59.782;16.378;2022-07-06T04:10:46;7.67;;;2.70;;
10725;SDS011;5414;59.782;16.378;2022-07-06T04:13:12;4.50;;;2.77;;
10725;SDS011;5414;59.782;16.378;2022-07-06T04:15:38;8.07;;;2.83;;
10725;SDS011;5414;59.782;16.378;2022-07-06T04:18:04;4.27;;;2.50;;
10725;SDS011;5414;59.782;16.378;2022-07-06T04:20:30;4.30;;;2.57;;
10725;SDS011;5414;59.782;16.378;2022-07-06T04:22:56;3.63;;;3.00;;
10725;SDS011;5414;59.782;16.378;2022-07-06T04:25:23;6.43;;;2.43;;
10725;SDS011;5414;59.782;16.378;2022-07-06T04:27:49;5.23;;;2.90;;
10725;SDS011;5414;59.782;16.378;2022-07-06T04:30:16;5.07;;;2.20;;
10725;SDS011;5414;59.782;16.378;2022-07-06T04:32:42;4.10;;;2.33;;
10725;SDS011;5414;59.782;16.378;2022-07-06T04:35:08;4.60;;;2.33;;
10725;SDS011;5414;59.782;16.378;2022-07-06T04:37:34;3.50;;;2.10;;
10725;SDS011;5414;59.782;16.378;2022-07-06T04:40:00;4.97;;;2.43;;
10725;SDS011;5414;59.782;16.378;2022-07-06T04:42:26;5.03;;;2.47;;
10725;SDS011;5414;59.782;16.378;2022-07-06T04:44:52;8.20;;;2.60;;
10725;SDS011;5414;59.782;16.378;2022-07-06T04:47:18;5.00;;;2.50;;
10725;SDS011;5414;59.782;16.378;2022-07-06T04:49:44;4.63;;;2.23;;
10725;SDS011;5414;59.782;16.378;2022-07-06T04:52:10;5.23;;;2.40;;
10725;SDS011;5414;59.782;16.378;2022-07-06T04:54:36;4.47;;;2.20;;
10725;SDS011;5414;59.782;16.378;2022-07-06T04:57:02;4.87;;;2.13;;
10725;SDS011;5414;59.782;16.378;2022-07-06T04:59:29;5.83;;;2.70;;
10725;SDS011;5414;59.782;16.378;2022-07-06T05:01:55;4.93;;;2.30;;
10725;SDS011;5414;59.782;16.378;2022-07-06T05:04:21;6.23;;;2.73;;
10725;SDS011;5414;59.782;16.378;2022-07-06T05:06:48;6.97;;;2.53;;
10725;SDS011;5414;59.782;16.378;2022-07-06T05:09:14;3.13;;;2.30;;
10725;SDS011;5414;59.782;16.378;2022-07-06T05:11:40;4.00;;;2.20;;
10725;SDS011;5414;59.782;16.378;2022-07-06T05:14:06;6.00;;;2.90;;
10725;SDS011;5414;59.782;16.378;2022-07-06T05:16:33;4.73;;;2.40;;
10725;SDS011;5414;59.782;16.378;2022-07-06T05:18:59;4.37;;;2.17;;
10725;SDS011;5414;59.782;16.378;2022-07-06T05:21:25;4.93;;;3.03;;
10725;SDS011;5414;59.782;16.378;2022-07-06T05:23:51;4.97;;;2.90;;
10725;SDS011;5414;59.782;16.378;2022-07-06T05:26:17;4.97;;;2.87;;
10725;SDS011;5414;59.782;16.378;2022-07-06T05:28:43;5.33;;;2.53;;
10725;SDS011;5414;59.782;16.378;2022-07-06T05:31:09;5.50;;;2.77;;
10725;SDS011;5414;59.782;16.378;2022-07-06T05:33:35;4.07;;;2.37;;
10725;SDS011;5414;59.782;16.378;2022-07-06T05:36:01;4.47;;;2.40;;
10725;SDS011;5414;59.782;16.378;2022-07-06T05:38:27;5.70;;;2.37;;
10725;SDS011;5414;59.782;16.378;2022-07-06T05:40:53;5.13;;;2.30;;
10725;SDS011;5414;59.782;16.378;2022-07-06T05:43:19;3.97;;;2.10;;
10725;SDS011;5414;59.782;16.378;2022-07-06T05:45:45;6.53;;;2.47;;
10725;SDS011;5414;59.782;16.378;2022-07-06T05:48:11;3.57;;;2.23;;
10725;SDS011;5414;59.782;16.378;2022-07-06T05:50:56;3.67;;;2.00;;
10725;SDS011;5414;59.782;16.378;2022-07-06T05:53:22;3.63;;;2.53;;
10725;SDS011;5414;59.782;16.378;2022-07-06T05:55:48;6.17;;;2.67;;
10725;SDS011;5414;59.782;16.378;2022-07-06T05:58:14;7.13;;;2.50;;
10725;SDS011;5414;59.782;16.378;2022-07-06T06:00:40;6.43;;;2.40;;
10725;SDS011;5414;59.782;16.378;2022-07-06T06:03:06;5.30;;;2.50;;
10725;SDS011;5414;59.782;16.378;2022-07-06T06:05:32;5.27;;;2.37;;
10725;SDS011;5414;59.782;16.378;2022-07-06T06:07:58;6.40;;;2.77;;
10725;SDS011;5414;59.782;16.378;2022-07-06T06:10:24;5.93;;;2.40;;
10725;SDS011;5414;59.782;16.378;2022-07-06T06:12:50;5.03;;;2.40;;
10725;SDS011;5414;59.782;16.378;2022-07-06T06:15:16;4.03;;;2.20;;
10725;SDS011;5414;59.782;16.378;2022-07-06T06:17:43;5.33;;;2.60;;
10725;SDS011;5414;59.782;16.378;2022-07-06T06:20:10;4.30;;;2.27;;
10725;SDS011;5414;59.782;16.378;2022-07-06T06:22:46;4.53;;;2.60;;
10725;SDS011;5414;59.782;16.378;2022-07-06T06:25:13;3.93;;;2.30;;
10725;SDS011;5414;59.782;16.378;2022-07-06T06:27:39;4.53;;;2.43;;
10725;SDS011;5414;59.782;16.378;2022-07-06T06:30:05;5.13;;;2.37;;
10725;SDS011;5414;59.782;16.378;2022-07-06T06:32:31;7.30;;;2.67;;
10725;SDS011;5414;59.782;16.378;2022-07-06T06:34:57;4.33;;;2.00;;
10725;SDS011;5414;59.782;16.378;2022-07-06T06:37:23;4.90;;;2.63;;
10725;SDS011;5414;59.782;16.378;2022-07-06T06:39:49;4.53;;;2.00;;
10725;SDS011;5414;59.782;16.378;2022-07-06T06:42:15;7.07;;;2.53;;
10725;SDS011;5414;59.782;16.378;2022-07-06T06:44:41;3.47;;;2.03;;
10725;SDS011;5414;59.782;16.378;2022-07-06T06:47:07;3.97;;;2.20;;
10725;SDS011;5414;59.782;16.378;2022-07-06T06:49:33;3.33;;;2.00;;
10725;SDS011;5414;59.782;16.378;2022-07-06T06:51:59;2.83;;;1.90;;
10725;SDS011;5414;59.782;16.378;2022-07-06T06:54:25;5.03;;;2.30;;
10725;SDS011;5414;59.782;16.378;2022-07-06T06:56:51;7.00;;;2.57;;
10725;SDS011;5414;59.782;16.378;2022-07-06T06:59:17;2.77;;;1.97;;
10725;SDS011;5414;59.782;16.378;2022-07-06T07:01:43;3.63;;;1.90;;
10725;SDS011;5414;59.782;16.378;2022-07-06T07:04:09;3.50;;;2.00;;
10725;SDS011;5414;59.782;16.378;2022-07-06T07:06:36;3.30;;;1.80;;
10725;SDS011;5414;59.782;16.378;2022-07-06T07:09:02;3.50;;;1.77;;
10725;SDS011;5414;59.782;16.378;2022-07-06T07:11:30;3.23;;;1.67;;
10725;SDS011;5414;59.782;16.378;2022-07-06T07:13:56;3.57;;;1.70;;
10725;SDS011;5414;59.782;16.378;2022-07-06T07:16:22;2.40;;;1.53;;
10725;SDS011;5414;59.782;16.378;2022-07-06T07:18:49;2.97;;;2.00;;
10725;SDS011;5414;59.782;16.378;2022-07-06T07:21:15;2.70;;;1.50;;
10725;SDS011;5414;59.782;16.378;2022-07-06T07:23:41;2.87;;;1.40;;
10725;SDS011;5414;59.782;16.378;2022-07-06T07:26:07;3.87;;;1.80;;
10725;SDS011;5414;59.782;16.378;2022-07-06T07:28:33;4.13;;;1.67;;
10725;SDS011;5414;59.782;16.378;2022-07-06T07:31:00;2.93;;;1.50;;
10725;SDS011;5414;59.782;16.378;2022-07-06T07:33:26;4.00;;;1.73;;
10725;SDS011;5414;59.782;16.378;2022-07-06T07:35:52;4.30;;;2.20;;
10725;SDS011;5414;59.782;16.378;2022-07-06T07:38:18;3.87;;;1.50;;
10725;SDS011;5414;59.782;16.378;2022-07-06T07:40:44;4.77;;;1.73;;
10725;SDS011;5414;59.782;16.378;2022-07-06T07:43:10;3.70;;;1.80;;
10725;SDS011;5414;59.782;16.378;2022-07-06T07:45:36;3.67;;;1.70;;
10725;SDS011;5414;59.782;16.378;2022-07-06T07:48:02;3.57;;;1.60;;
10725;SDS011;5414;59.782;16.378;2022-07-06T07:50:28;4.67;;;1.70;;
10725;SDS011;5414;59.782;16.378;2022-07-06T07:52:54;2.27;;;1.30;;
10725;SDS011;5414;59.782;16.378;2022-07-06T07:55:20;3.47;;;1.30;;
10725;SDS011;5414;59.782;16.378;2022-07-06T07:57:46;2.53;;;1.40;;
10725;SDS011;5414;59.782;16.378;2022-07-06T08:00:12;2.23;;;1.23;;
10725;SDS011;5414;59.782;16.378;2022-07-06T08:02:38;3.13;;;1.30;;
10725;SDS011;5414;59.782;16.378;2022-07-06T08:05:05;3.00;;;1.30;;
10725;SDS011;5414;59.782;16.378;2022-07-06T08:07:31;5.20;;;1.50;;
10725;SDS011;5414;59.782;16.378;2022-07-06T08:09:57;2.37;;;1.20;;
10725;SDS011;5414;59.782;16.378;2022-07-06T08:12:23;2.17;;;1.30;;
10725;SDS011;5414;59.782;16.378;2022-07-06T08:14:49;3.07;;;1.40;;
10725;SDS011;5414;59.782;16.378;2022-07-06T08:17:15;3.13;;;1.50;;
10725;SDS011;5414;59.782;16.378;2022-07-06T08:19:41;2.20;;;1.40;;
10725;SDS011;5414;59.782;16.378;2022-07-06T08:22:07;3.10;;;1.57;;
10725;SDS011;5414;59.782;16.378;2022-07-06T08:24:34;2.87;;;1.60;;
10725;SDS011;5414;59.782;16.378;2022-07-06T08:27:00;2.40;;;1.30;;
10725;SDS011;5414;59.782;16.378;2022-07-06T08:29:27;2.53;;;1.60;;
10725;SDS011;5414;59.782;16.378;2022-07-06T08:31:53;2.33;;;1.37;;
10725;SDS011;5414;59.782;16.378;2022-07-06T08:34:19;3.10;;;1.40;;
10725;SDS011;5414;59.782;16.378;2022-07-06T08:36:45;2.27;;;1.50;;
10725;SDS011;5414;59.782;16.378;2022-07-06T08:39:12;2.53;;;1.40;;
10725;SDS011;5414;59.782;16.378;2022-07-06T08:41:38;2.63;;;1.20;;
10725;SDS011;5414;59.782;16.378;2022-07-06T08:44:06;3.17;;;1.10;;
10725;SDS011;5414;59.782;16.378;2022-07-06T08:46:32;2.40;;;1.10;;
10725;SDS011;5414;59.782;16.378;2022-07-06T08:48:59;2.23;;;0.83;;
10725;SDS011;5414;59.782;16.378;2022-07-06T08:51:25;2.23;;;1.00;;
10725;SDS011;5414;59.782;16.378;2022-07-06T08:53:52;1.30;;;1.00;;
10725;SDS011;5414;59.782;16.378;2022-07-06T08:56:19;2.30;;;1.00;;
10725;SDS011;5414;59.782;16.378;2022-07-06T08:58:45;1.20;;;0.90;;
10725;SDS011;5414;59.782;16.378;2022-07-06T09:01:11;2.30;;;1.23;;
10725;SDS011;5414;59.782;16.378;2022-07-06T09:03:40;1.70;;;1.17;;
10725;SDS011;5414;59.782;16.378;2022-07-06T09:06:07;1.65;;;1.10;;
10725;SDS011;5414;59.782;16.378;2022-07-06T09:08:33;4.43;;;1.73;;
10725;SDS011;5414;59.782;16.378;2022-07-06T09:11:03;3.03;;;1.30;;
10725;SDS011;5414;59.782;16.378;2022-07-06T09:13:29;2.23;;;1.00;;
10725;SDS011;5414;59.782;16.378;2022-07-06T09:15:55;1.73;;;1.10;;
10725;SDS011;5414;59.782;16.378;2022-07-06T09:18:21;3.00;;;1.20;;
10725;SDS011;5414;59.782;16.378;2022-07-06T09:20:47;3.17;;;1.17;;
10725;SDS011;5414;59.782;16.378;2022-07-06T09:23:15;2.57;;;1.17;;
10725;SDS011;5414;59.782;16.378;2022-07-06T09:25:41;3.47;;;1.30;;
10725;SDS011;5414;59.782;16.378;2022-07-06T09:28:07;2.63;;;1.50;;
10725;SDS011;5414;59.782;16.378;2022-07-06T09:30:34;2.60;;;1.40;;
10725;SDS011;5414;59.782;16.378;2022-07-06T09:33:05;2.63;;;1.50;;
10725;SDS011;5414;59.782;16.378;2022-07-06T09:35:37;3.17;;;1.60;;
10725;SDS011;5414;59.782;16.378;2022-07-06T09:38:11;2.10;;;1.30;;
10725;SDS011;5414;59.782;16.378;2022-07-06T09:40:38;4.97;;;1.90;;
10725;SDS011;5414;59.782;16.378;2022-07-06T09:43:11;2.07;;;1.30;;
10725;SDS011;5414;59.782;16.378;2022-07-06T09:45:38;3.57;;;1.53;;
10725;SDS011;5414;59.782;16.378;2022-07-06T09:50:44;3.70;;;1.50;;
10725;SDS011;5414;59.782;16.378;2022-07-06T09:53:11;4.87;;;1.20;;
10725;SDS011;5414;59.782;16.378;2022-07-06T09:55:37;2.03;;;1.20;;
10725;SDS011;5414;59.782;16.378;2022-07-06T09:58:03;4.10;;;1.50;;
10725;SDS011;5414;59.782;16.378;2022-07-06T10:00:30;2.73;;;1.10;;
10725;SDS011;5414;59.782;16.378;2022-07-06T10:02:56;2.87;;;1.40;;
10725;SDS011;5414;59.782;16.378;2022-07-06T10:05:22;2.70;;;1.10;;
10725;SDS011;5414;59.782;16.378;2022-07-06T10:07:56;1.77;;;1.00;;
10725;SDS011;5414;59.782;16.378;2022-07-06T10:10:24;1.67;;;0.90;;
10725;SDS011;5414;59.782;16.378;2022-07-06T10:12:51;2.37;;;1.20;;
10725;SDS011;5414;59.782;16.378;2022-07-06T10:15:17;6.10;;;1.30;;
10725;SDS011;5414;59.782;16.378;2022-07-06T10:17:45;2.87;;;1.13;;
10725;SDS011;5414;59.782;16.378;2022-07-06T10:20:12;2.67;;;1.10;;
10725;SDS011;5414;59.782;16.378;2022-07-06T10:22:39;2.60;;;1.00;;
10725;SDS011;5414;59.782;16.378;2022-07-06T10:25:06;2.23;;;1.10;;
10725;SDS011;5414;59.782;16.378;2022-07-06T10:27:32;2.50;;;1.40;;
10725;SDS011;5414;59.782;16.378;2022-07-06T10:29:58;2.80;;;1.13;;
10725;SDS011;5414;59.782;16.378;2022-07-06T10:32:25;2.47;;;1.10;;
10725;SDS011;5414;59.782;16.378;2022-07-06T10:34:52;4.67;;;1.47;;
10725;SDS011;5414;59.782;16.378;2022-07-06T10:37:25;2.87;;;1.50;;
10725;SDS011;5414;59.782;16.378;2022-07-06T10:39:51;2.57;;;1.40;;
10725;SDS011;5414;59.782;16.378;2022-07-06T10:45:06;1.63;;;1.20;;
10725;SDS011;5414;59.782;16.378;2022-07-06T10:47:32;3.53;;;1.70;;
10725;SDS011;5414;59.782;16.378;2022-07-06T10:50:01;3.53;;;1.33;;
10725;SDS011;5414;59.782;16.378;2022-07-06T10:58:12;1.53;;;1.20;;
10725;SDS011;5414;59.782;16.378;2022-07-06T11:00:49;2.13;;;1.30;;
10725;SDS011;5414;59.782;16.378;2022-07-06T11:03:50;1.93;;;1.10;;
10725;SDS011;5414;59.782;16.378;2022-07-06T11:06:16;2.83;;;1.23;;
10725;SDS011;5414;59.782;16.378;2022-07-06T11:11:18;1.93;;;0.97;;
10725;SDS011;5414;59.782;16.378;2022-07-06T11:16:30;1.70;;;0.80;;
10725;SDS011;5414;59.782;16.378;2022-07-06T11:21:37;1.93;;;0.60;;
10725;SDS011;5414;59.782;16.378;2022-07-06T11:24:04;1.73;;;0.70;;
10725;SDS011;5414;59.782;16.378;2022-07-06T11:26:31;1.50;;;0.60;;
10725;SDS011;5414;59.782;16.378;2022-07-06T11:28:58;1.13;;;0.50;;
10725;SDS011;5414;59.782;16.378;2022-07-06T11:31:25;0.60;;;0.50;;
10725;SDS011;5414;59.782;16.378;2022-07-06T11:33:51;1.33;;;0.60;;
10725;SDS011;5414;59.782;16.378;2022-07-06T11:36:18;0.83;;;0.50;;
10725;SDS011;5414;59.782;16.378;2022-07-06T11:38:45;1.13;;;0.40;;
10725;SDS011;5414;59.782;16.378;2022-07-06T11:41:11;0.40;;;0.40;;
10725;SDS011;5414;59.782;16.378;2022-07-06T11:43:42;1.40;;;0.50;;
10725;SDS011;5414;59.782;16.378;2022-07-06T11:48:56;1.47;;;0.50;;
10725;SDS011;5414;59.782;16.378;2022-07-06T11:51:25;0.93;;;0.30;;
10725;SDS011;5414;59.782;16.378;2022-07-06T11:53:53;0.77;;;0.40;;
10725;SDS011;5414;59.782;16.378;2022-07-06T11:56:19;0.70;;;0.50;;
10725;SDS011;5414;59.782;16.378;2022-07-06T11:58:49;0.67;;;0.40;;
10725;SDS011;5414;59.782;16.378;2022-07-06T12:01:16;2.73;;;0.53;;
10725;SDS011;5414;59.782;16.378;2022-07-06T12:03:42;0.40;;;0.40;;
10725;SDS011;5414;59.782;16.378;2022-07-06T12:06:43;0.40;;;0.40;;
10725;SDS011;5414;59.782;16.378;2022-07-06T12:09:00;0.50;;;0.40;;
10725;SDS011;5414;59.782;16.378;2022-07-06T12:11:32;0.83;;;0.70;;
10725;SDS011;5414;59.782;16.378;2022-07-06T12:14:03;1.07;;;0.53;;
10725;SDS011;5414;59.782;16.378;2022-07-06T12:16:38;0.40;;;0.40;;
10725;SDS011;5414;59.782;16.378;2022-07-06T12:19:05;0.50;;;0.40;;
10725;SDS011;5414;59.782;16.378;2022-07-06T12:21:32;1.30;;;0.50;;
10725;SDS011;5414;59.782;16.378;2022-07-06T12:23:59;1.03;;;0.63;;
10725;SDS011;5414;59.782;16.378;2022-07-06T12:26:26;0.73;;;0.40;;
10725;SDS011;5414;59.782;16.378;2022-07-06T12:29:01;0.40;;;0.40;;
10725;SDS011;5414;59.782;16.378;2022-07-06T12:31:31;0.83;;;0.43;;
10725;SDS011;5414;59.782;16.378;2022-07-06T12:33:57;0.70;;;0.40;;
10725;SDS011;5414;59.782;16.378;2022-07-06T12:36:23;0.50;;;0.47;;
10725;SDS011;5414;59.782;16.378;2022-07-06T12:38:49;0.70;;;0.50;;
10725;SDS011;5414;59.782;16.378;2022-07-06T12:41:28;1.27;;;0.50;;
10725;SDS011;5414;59.782;16.378;2022-07-06T12:44:01;0.30;;;0.30;;
10725;SDS011;5414;59.782;16.378;2022-07-06T12:48:57;0.50;;;0.50;;
10725;SDS011;5414;59.782;16.378;2022-07-06T12:51:23;1.17;;;0.40;;
10725;SDS011;5414;59.782;16.378;2022-07-06T12:53:50;0.57;;;0.50;;
10725;SDS011;5414;59.782;16.378;2022-07-06T12:56:16;0.60;;;0.60;;
10725;SDS011;5414;59.782;16.378;2022-07-06T12:58:59;0.50;;;0.40;;
10725;SDS011;5414;59.782;16.378;2022-07-06T13:01:25;0.60;;;0.50;;
10725;SDS011;5414;59.782;16.378;2022-07-06T13:03:55;0.77;;;0.40;;
10725;SDS011;5414;59.782;16.378;2022-07-06T13:06:39;0.63;;;0.50;;
10725;SDS011;5414;59.782;16.378;2022-07-06T13:09:05;1.03;;;0.30;;
10725;SDS011;5414;59.782;16.378;2022-07-06T13:11:31;0.40;;;0.40;;
10725;SDS011;5414;59.782;16.378;2022-07-06T13:13:58;0.40;;;0.40;;
10725;SDS011;5414;59.782;16.378;2022-07-06T13:16:24;0.87;;;0.40;;
10725;SDS011;5414;59.782;16.378;2022-07-06T13:18:55;0.43;;;0.40;;
10725;SDS011;5414;59.782;16.378;2022-07-06T13:21:21;0.40;;;0.40;;
10725;SDS011;5414;59.782;16.378;2022-07-06T13:23:47;0.50;;;0.40;;
10725;SDS011;5414;59.782;16.378;2022-07-06T13:26:13;0.70;;;0.40;;
10725;SDS011;5414;59.782;16.378;2022-07-06T13:28:39;0.67;;;0.47;;
10725;SDS011;5414;59.782;16.378;2022-07-06T13:31:05;0.83;;;0.47;;
10725;SDS011;5414;59.782;16.378;2022-07-06T13:33:31;1.23;;;0.50;;
10725;SDS011;5414;59.782;16.378;2022-07-06T13:35:57;1.20;;;0.50;;
10725;SDS011;5414;59.782;16.378;2022-07-06T13:38:25;0.50;;;0.50;;
10725;SDS011;5414;59.782;16.378;2022-07-06T13:40:51;0.40;;;0.40;;
10725;SDS011;5414;59.782;16.378;2022-07-06T13:43:17;0.67;;;0.40;;
10725;SDS011;5414;59.782;16.378;2022-07-06T13:45:43;0.73;;;0.40;;
10725;SDS011;5414;59.782;16.378;2022-07-06T13:48:09;0.93;;;0.50;;
10725;SDS011;5414;59.782;16.378;2022-07-06T13:50:35;0.47;;;0.40;;
10725;SDS011;5414;59.782;16.378;2022-07-06T13:53:01;0.53;;;0.40;;
10725;SDS011;5414;59.782;16.378;2022-07-06T13:55:27;0.33;;;0.33;;
10725;SDS011;5414;59.782;16.378;2022-07-06T13:57:53;0.57;;;0.40;;
10725;SDS011;5414;59.782;16.378;2022-07-06T14:00:19;0.40;;;0.40;;
10725;SDS011;5414;59.782;16.378;2022-07-06T14:02:45;0.40;;;0.40;;
10725;SDS011;5414;59.782;16.378;2022-07-06T14:05:12;0.93;;;0.30;;
10725;SDS011;5414;59.782;16.378;2022-07-06T14:07:38;0.40;;;0.40;;
10725;SDS011;5414;59.782;16.378;2022-07-06T14:10:04;0.37;;;0.37;;
10725;SDS011;5414;59.782;16.378;2022-07-06T14:12:30;1.40;;;0.40;;
10725;SDS011;5414;59.782;16.378;2022-07-06T14:14:56;0.47;;;0.27;;
10725;SDS011;5414;59.782;16.378;2022-07-06T14:17:22;0.30;;;0.30;;
10725;SDS011;5414;59.782;16.378;2022-07-06T14:19:48;0.50;;;0.40;;
10725;SDS011;5414;59.782;16.378;2022-07-06T14:22:15;0.40;;;0.30;;
10725;SDS011;5414;59.782;16.378;2022-07-06T14:24:41;0.97;;;0.30;;
10725;SDS011;5414;59.782;16.378;2022-07-06T14:27:07;0.50;;;0.30;;
10725;SDS011;5414;59.782;16.378;2022-07-06T14:29:33;2.30;;;0.50;;
10725;SDS011;5414;59.782;16.378;2022-07-06T14:31:59;0.40;;;0.40;;
10725;SDS011;5414;59.782;16.378;2022-07-06T14:34:25;0.30;;;0.30;;
10725;SDS011;5414;59.782;16.378;2022-07-06T14:36:51;0.30;;;0.30;;
10725;SDS011;5414;59.782;16.378;2022-07-06T14:39:17;0.50;;;0.30;;
10725;SDS011;5414;59.782;16.378;2022-07-06T14:41:43;2.03;;;0.30;;
10725;SDS011;5414;59.782;16.378;2022-07-06T14:44:09;0.70;;;0.30;;
10725;SDS011;5414;59.782;16.378;2022-07-06T14:46:35;0.73;;;0.40;;
10725;SDS011;5414;59.782;16.378;2022-07-06T14:49:01;0.20;;;0.20;;
10725;SDS011;5414;59.782;16.378;2022-07-06T14:51:27;0.30;;;0.30;;
10725;SDS011;5414;59.782;16.378;2022-07-06T14:53:53;0.83;;;0.20;;
10725;SDS011;5414;59.782;16.378;2022-07-06T14:56:19;0.20;;;0.20;;
10725;SDS011;5414;59.782;16.378;2022-07-06T14:58:45;0.30;;;0.30;;
10725;SDS011;5414;59.782;16.378;2022-07-06T15:01:11;0.53;;;0.40;;
10725;SDS011;5414;59.782;16.378;2022-07-06T15:03:37;0.30;;;0.30;;
10725;SDS011;5414;59.782;16.378;2022-07-06T15:06:04;0.57;;;0.30;;
10725;SDS011;5414;59.782;16.378;2022-07-06T15:08:30;0.57;;;0.30;;
10725;SDS011;5414;59.782;16.378;2022-07-06T15:10:56;0.23;;;0.23;;